Time;durP1;ratioP1;P1;durP2;ratioP2;P2;SDS_P1;SDS_P2;PMS_P1;PMS_P2;Temp;Humidity;BMP_temperature;BMP_pressure;BME280_temperature;BME280_humidity;BME280_pressure;Samples;Min_cycle;Max_cycle;Signal;HPM_P1;HPM_P2
2024/02/09 00:02:49;;;;;;;20.70;5.87;;;;;10.10;98163.00;;;;10448533;28;20231;-87
2024/02/09 00:07:51;;;;;;;18.10;6.00;;;;;10.10;98133.00;;;;10441276;28;20216;-87
2024/02/09 00:12:55;;;;;;;20.07;7.03;;;;;10.10;98126.00;;;;10431635;28;20279;-87
2024/02/09 00:17:57;;;;;;;13.73;5.63;;;;;10.00;98127.00;;;;10473512;28;20309;-88
2024/02/09 00:22:59;;;;;;;16.40;6.37;;;;;10.10;98114.00;;;;10433021;28;20544;-87
2024/02/09 00:28:03;;;;;;;20.33;5.73;;;;;10.10;98108.00;;;;10444971;28;20219;-87
2024/02/09 00:33:08;;;;;;;11.23;5.73;;;;;10.10;98085.00;;;;10436317;28;20267;-88
2024/02/09 00:38:10;;;;;;;19.57;5.80;;;;;10.10;98080.00;;;;10443585;28;20299;-79
2024/02/09 00:43:13;;;;;;;17.93;5.57;;;;;10.00;98069.00;;;;10424900;28;20244;-79
2024/02/09 00:48:19;;;;;;;12.17;5.50;;;;;10.00;98069.00;;;;10446058;28;20889;-79
2024/02/09 00:53:21;;;;;;;11.77;5.23;;;;;10.00;98053.00;;;;10434471;28;20225;-79
2024/02/09 00:58:23;;;;;;;13.10;4.23;;;;;10.00;98051.00;;;;10426428;28;20257;-79
2024/02/09 01:03:25;;;;;;;13.87;4.30;;;;;10.00;98033.00;;;;10451199;28;20218;-79
2024/02/09 01:08:28;;;;;;;9.07;4.00;;;;;9.90;98018.00;;;;10440186;28;20628;-79
2024/02/09 03:05:35;;;;;;;4.83;2.80;;;;;9.80;97911.00;;;;10449611;28;20217;-88
2024/02/09 03:10:37;;;;;;;7.20;2.83;;;;;9.90;97908.00;;;;10446576;28;20225;-88
2024/02/09 03:15:39;;;;;;;4.50;2.07;;;;;9.90;97900.00;;;;10492845;28;20221;-86
2024/02/09 03:20:40;;;;;;;4.60;2.90;;;;;10.00;97903.00;;;;10448574;28;20300;-89
2024/02/09 03:25:43;;;;;;;6.43;2.40;;;;;10.00;97886.00;;;;10432615;28;20221;-86
2024/02/09 03:30:45;;;;;;;7.93;3.33;;;;;10.10;97879.00;;;;10454931;28;20222;-89
2024/02/09 03:35:46;;;;;;;10.87;3.43;;;;;10.10;97881.00;;;;10428674;28;20623;-87
2024/02/09 03:40:51;;;;;;;7.90;3.07;;;;;10.10;97886.00;;;;10468741;28;20308;-88
2024/02/09 03:45:54;;;;;;;8.37;3.47;;;;;10.20;97874.00;;;;10433505;28;20626;-88
2024/02/09 03:50:55;;;;;;;8.03;3.33;;;;;10.10;97878.00;;;;10445813;28;20221;-85
2024/02/09 03:55:57;;;;;;;9.20;3.63;;;;;10.10;97868.00;;;;10468635;28;20233;-88
2024/02/09 04:01:00;;;;;;;6.20;3.00;;;;;10.10;97862.00;;;;10449558;28;20209;-90
2024/02/09 04:06:03;;;;;;;8.73;3.27;;;;;10.10;97851.00;;;;10431942;28;20217;-80
2024/02/09 04:11:05;;;;;;;7.43;2.80;;;;;10.10;97863.00;;;;10423742;28;20221;-80
2024/02/09 04:16:08;;;;;;;7.20;2.90;;;;;10.10;97846.00;;;;10442940;28;20232;-80
2024/02/09 04:21:10;;;;;;;10.67;2.60;;;;;10.10;97858.00;;;;10415314;28;20758;-81
2024/02/09 04:26:12;;;;;;;6.17;2.70;;;;;10.10;97859.00;;;;10421597;28;20224;-80
2024/02/09 04:31:14;;;;;;;5.97;2.50;;;;;10.20;97855.00;;;;10439069;28;20696;-81
2024/02/09 04:36:17;;;;;;;10.20;2.80;;;;;10.20;97844.00;;;;10433873;28;20222;-81
2024/02/09 04:41:19;;;;;;;7.07;2.90;;;;;10.20;97816.00;;;;10461324;28;20243;-81
2024/02/09 04:46:25;;;;;;;9.17;3.53;;;;;10.30;97825.00;;;;10431261;28;20308;-80
2024/02/09 04:51:29;;;;;;;7.30;3.13;;;;;10.30;97823.00;;;;10448666;28;20221;-80
2024/02/09 04:56:32;;;;;;;8.20;2.90;;;;;10.20;97815.00;;;;10444503;28;20222;-81
2024/02/09 05:01:39;;;;;;;8.10;2.97;;;;;10.20;97823.00;;;;10424826;28;20221;-80
2024/02/09 05:06:41;;;;;;;6.43;3.27;;;;;10.20;97817.00;;;;10430587;28;20673;-81
2024/02/09 05:11:43;;;;;;;8.47;2.87;;;;;10.20;97818.00;;;;10432936;28;20267;-80
2024/02/09 05:16:45;;;;;;;6.23;2.53;;;;;10.20;97809.00;;;;10454027;28;20241;-80
2024/02/09 05:21:47;;;;;;;6.27;2.83;;;;;10.20;97807.00;;;;10448578;28;20222;-81
2024/02/09 05:26:49;;;;;;;7.33;2.90;;;;;10.20;97803.00;;;;10433533;28;20282;-81
2024/02/09 05:31:56;;;;;;;11.53;2.37;;;;;10.30;97804.00;;;;10445485;28;20217;-81
2024/02/09 05:36:58;;;;;;;6.83;2.50;;;;;10.30;97787.00;;;;10434852;28;20415;-80
2024/02/09 05:42:00;;;;;;;5.63;2.57;;;;;10.30;97792.00;;;;10430030;28;20214;-80
2024/02/09 05:47:03;;;;;;;9.03;2.93;;;;;10.40;97792.00;;;;10440797;28;20296;-81
2024/02/09 05:52:07;;;;;;;9.13;2.30;;;;;10.40;97774.00;;;;10457052;28;20227;-80
2024/02/09 05:57:09;;;;;;;4.80;2.27;;;;;10.30;97781.00;;;;10421068;28;20318;-82
2024/02/09 06:02:11;;;;;;;4.70;2.93;;;;;10.30;97776.00;;;;10457968;28;20305;-80
2024/02/09 06:07:12;;;;;;;7.13;2.83;;;;;10.40;97789.00;;;;10420419;28;20305;-80
2024/02/09 06:12:14;;;;;;;5.10;2.30;;;;;10.40;97776.00;;;;10440604;28;20279;-81
2024/02/09 06:17:16;;;;;;;4.53;2.70;;;;;10.50;97778.00;;;;10427085;28;20875;-80
2024/02/09 06:22:18;;;;;;;4.47;2.27;;;;;10.40;97767.00;;;;10422145;28;20230;-81
2024/02/09 06:27:21;;;;;;;4.77;2.37;;;;;10.40;97771.00;;;;10438092;28;20253;-81
2024/02/09 06:32:23;;;;;;;2.37;1.77;;;;;10.30;97762.00;;;;10463280;28;20218;-81
2024/02/09 06:37:25;;;;;;;6.07;2.50;;;;;10.20;97773.00;;;;10438979;28;20214;-80
2024/02/09 06:42:27;;;;;;;7.70;2.97;;;;;10.20;97766.00;;;;10437779;28;20245;-81
2024/02/09 06:47:29;;;;;;;5.47;2.07;;;;;10.10;97770.00;;;;10458110;28;20324;-79
2024/02/09 06:52:31;;;;;;;7.77;2.80;;;;;10.20;97765.00;;;;10459075;28;20245;-79
2024/02/09 06:57:35;;;;;;;7.13;2.10;;;;;10.30;97771.00;;;;10458376;28;20232;-80
2024/02/09 07:02:37;;;;;;;4.33;1.60;;;;;10.40;97789.00;;;;10428414;28;20217;-80
2024/02/09 07:07:43;;;;;;;8.73;2.53;;;;;10.30;97796.00;;;;10439634;28;20681;-81
2024/02/09 07:12:46;;;;;;;6.83;2.67;;;;;10.20;97785.00;;;;10430246;28;20224;-81
2024/02/09 07:17:50;;;;;;;6.27;2.00;;;;;10.20;97775.00;;;;10432929;28;20317;-79
2024/02/09 07:22:52;;;;;;;3.13;2.00;;;;;10.20;97784.00;;;;10430664;28;20613;-80
2024/02/09 07:27:53;;;;;;;5.60;2.27;;;;;10.20;97785.00;;;;10433800;28;20827;-79
2024/02/09 07:32:55;;;;;;;4.73;2.07;;;;;10.30;97793.00;;;;10430252;28;20214;-79
2024/02/09 07:37:57;;;;;;;7.57;3.00;;;;;10.40;97799.00;;;;10440916;28;20226;-80
2024/02/09 07:42:59;;;;;;;6.87;2.27;;;;;10.50;97814.00;;;;10440418;28;20308;-80
2024/02/09 07:48:02;;;;;;;4.83;1.97;;;;;10.70;97823.00;;;;10423054;28;20218;-81
2024/02/09 07:53:04;;;;;;;4.43;2.00;;;;;10.80;97818.00;;;;10428516;28;20300;-81
2024/02/09 07:58:05;;;;;;;5.80;2.20;;;;;11.00;97819.00;;;;10421105;28;20958;-80
2024/02/09 08:03:10;;;;;;;4.03;2.30;;;;;11.10;97819.00;;;;10440696;28;20221;-81
2024/02/09 08:08:12;;;;;;;4.00;1.90;;;;;11.20;97826.00;;;;10436814;28;20814;-81
2024/02/09 08:13:14;;;;;;;5.23;1.93;;;;;11.30;97834.00;;;;10441890;28;20973;-81
2024/02/09 08:18:16;;;;;;;5.40;2.50;;;;;11.40;97824.00;;;;10429802;28;20249;-80
2024/02/09 08:23:18;;;;;;;5.03;2.43;;;;;11.40;97826.00;;;;10461384;28;20307;-81
2024/02/09 08:28:20;;;;;;;8.67;2.70;;;;;11.30;97840.00;;;;10446807;28;20237;-81
2024/02/09 08:33:23;;;;;;;4.82;1.70;;;;;11.40;97841.00;;;;10434263;28;20639;-82
2024/02/09 08:38:25;;;;;;;5.27;2.10;;;;;11.60;97845.00;;;;10462392;28;20592;-81
2024/02/09 08:43:27;;;;;;;7.97;2.13;;;;;11.60;97846.00;;;;10434783;28;20284;-83
2024/02/09 08:48:29;;;;;;;6.43;1.97;;;;;11.70;97846.00;;;;10423019;28;20678;-81
2024/02/09 08:53:32;;;;;;;5.97;2.17;;;;;11.90;97854.00;;;;10428345;28;20224;-80
2024/02/09 08:58:34;;;;;;;4.53;2.25;;;;;12.00;97842.00;;;;10452744;28;20889;-81
2024/02/09 09:03:36;;;;;;;6.45;2.13;;;;;11.90;97858.00;;;;10413196;28;20218;-81
2024/02/09 09:08:38;;;;;;;5.38;2.50;;;;;12.00;97849.00;;;;10424002;28;20225;-80
2024/02/09 09:13:40;;;;;;;6.30;2.05;;;;;12.20;97867.00;;;;10425051;28;20317;-81
2024/02/09 09:18:45;;;;;;;4.30;2.75;;;;;12.30;97854.00;;;;10452291;28;20255;-80
2024/02/09 09:23:47;;;;;;;9.38;1.95;;;;;12.60;97864.00;;;;10437394;28;20904;-80
2024/02/09 09:28:49;;;;;;;5.57;1.83;;;;;12.70;97867.00;;;;10465339;28;20221;-81
2024/02/09 09:33:54;;;;;;;4.95;2.08;;;;;13.00;97876.00;;;;10445920;28;20790;-81
2024/02/09 09:38:59;;;;;;;4.97;2.15;;;;;13.20;97875.00;;;;10422006;28;20232;-81
2024/02/09 09:44:02;;;;;;;4.20;2.03;;;;;13.30;97875.00;;;;10451516;28;20217;-81
2024/02/09 09:49:04;;;;;;;6.65;2.13;;;;;13.30;97895.00;;;;10411234;28;20308;-81
2024/02/09 09:54:08;;;;;;;5.03;2.13;;;;;13.30;97899.00;;;;10429077;28;20233;-82
2024/02/09 09:59:10;;;;;;;4.95;2.13;;;;;13.70;97891.00;;;;10425638;28;20672;-83
2024/02/09 10:04:12;;;;;;;4.95;2.13;;;;;13.90;97907.00;;;;10434430;28;20214;-82
2024/02/09 10:09:16;;;;;;;3.95;1.80;;;;;13.80;97908.00;;;;10417484;28;20287;-82
2024/02/09 10:14:20;;;;;;;5.05;1.95;;;;;14.00;97918.00;;;;10426305;28;20264;-81
2024/02/09 10:19:22;;;;;;;8.57;2.53;;;;;13.90;97902.00;;;;10440584;28;20221;-81
2024/02/09 10:24:24;;;;;;;3.95;1.45;;;;;14.00;97906.00;;;;10421412;28;20271;-81
2024/02/09 10:29:26;;;;;;;5.45;1.88;;;;;14.10;97910.00;;;;10428255;28;20226;-82
2024/02/09 10:34:28;;;;;;;4.10;1.95;;;;;13.90;97913.00;;;;10418017;28;20217;-81
2024/02/09 10:39:31;;;;;;;5.82;1.80;;;;;13.60;97918.00;;;;10442021;28;21002;-81
2024/02/09 10:44:36;;;;;;;4.97;1.73;;;;;13.80;97923.00;;;;10413810;28;21195;-83
2024/02/09 10:49:43;;;;;;;6.00;2.45;;;;;13.80;97929.00;;;;10439516;28;20246;-81
2024/02/09 10:54:50;;;;;;;5.90;2.53;;;;;13.80;97929.00;;;;10423133;28;20231;-81
2024/02/09 10:59:53;;;;;;;7.10;2.08;;;;;13.80;97925.00;;;;10409274;28;20222;-81
2024/02/09 11:04:57;;;;;;;4.78;1.95;;;;;13.70;97935.00;;;;10421203;28;20291;-81
2024/02/09 11:10:00;;;;;;;5.47;2.05;;;;;13.80;97941.00;;;;10424749;28;20224;-81
2024/02/09 11:15:13;;;;;;;5.80;2.45;;;;;13.60;97929.00;;;;10415837;28;20766;-82
2024/02/09 11:20:17;;;;;;;5.68;2.17;;;;;13.50;97938.00;;;;10429341;28;20302;-81
2024/02/09 11:25:19;;;;;;;4.45;1.98;;;;;13.40;97933.00;;;;10443136;28;20230;-81
2024/02/09 11:30:21;;;;;;;9.13;1.65;;;;;13.60;97929.00;;;;10413883;28;20229;-80
2024/02/09 11:35:29;;;;;;;8.63;2.47;;;;;14.00;97929.00;;;;10418321;28;21532;-80
2024/02/09 11:40:32;;;;;;;6.30;2.10;;;;;14.10;97939.00;;;;10411839;28;20684;-81
2024/02/09 11:45:36;;;;;;;7.47;2.60;;;;;13.90;97932.00;;;;10421276;28;20240;-82
2024/02/09 11:50:38;;;;;;;5.15;2.00;;;;;13.90;97919.00;;;;10410086;28;20295;-82
2024/02/09 11:55:42;;;;;;;6.78;2.15;;;;;13.60;97921.00;;;;10432075;28;20245;-81
2024/02/09 12:00:50;;;;;;;6.13;2.00;;;;;13.60;97924.00;;;;10447725;28;20221;-81
2024/02/09 12:05:52;;;;;;;8.40;2.55;;;;;13.70;97921.00;;;;10415086;28;20209;-81
2024/02/09 12:10:54;;;;;;;5.93;2.00;;;;;13.70;97920.00;;;;10423948;28;20297;-81
2024/02/09 12:15:59;;;;;;;8.30;2.53;;;;;13.90;97924.00;;;;10424620;28;20324;-84
2024/02/09 12:21:02;;;;;;;11.45;2.80;;;;;14.10;97930.00;;;;10443181;28;20221;-82
2024/02/09 12:26:08;;;;;;;7.07;2.67;;;;;14.60;97920.00;;;;10423472;28;20210;-82
2024/02/09 12:31:12;;;;;;;3.22;1.90;;;;;15.20;97922.00;;;;10411192;28;20296;-83
2024/02/09 12:36:18;;;;;;;12.68;2.72;;;;;14.90;97914.00;;;;10425644;28;20245;-84
2024/02/09 12:41:20;;;;;;;11.48;2.00;;;;;14.80;97916.00;;;;10426869;28;20775;-84
2024/02/09 12:46:24;;;;;;;3.80;1.70;;;;;14.70;97921.00;;;;10428716;28;20832;-83
2024/02/09 12:51:28;;;;;;;5.97;1.95;;;;;14.70;97905.00;;;;10427036;28;20218;-84
2024/02/09 12:56:29;;;;;;;5.72;1.63;;;;;14.70;97916.00;;;;10451657;28;20225;-82
2024/02/09 13:01:32;;;;;;;7.45;1.63;;;;;14.70;97916.00;;;;10445762;28;20307;-84
2024/02/09 13:06:35;;;;;;;7.90;2.30;;;;;14.20;97919.00;;;;10424964;28;20232;-84
2024/02/09 13:11:36;;;;;;;4.85;1.70;;;;;14.40;97918.00;;;;10438901;28;20225;-83
2024/02/09 13:16:38;;;;;;;4.65;1.77;;;;;14.30;97917.00;;;;10430876;28;20234;-82
2024/02/09 13:21:41;;;;;;;5.90;1.95;;;;;14.50;97912.00;;;;10448781;28;20219;-84
2024/02/09 13:26:47;;;;;;;6.97;2.00;;;;;14.70;97910.00;;;;10455316;28;20221;-83
2024/02/09 13:31:50;;;;;;;6.20;1.65;;;;;14.70;97922.00;;;;10439971;28;20223;-84
2024/02/09 13:36:52;;;;;;;4.35;1.40;;;;;14.20;97916.00;;;;10447379;28;20216;-83
2024/02/09 13:41:54;;;;;;;3.42;1.13;;;;;13.70;97926.00;;;;10430409;28;20293;-83
2024/02/09 13:46:55;;;;;;;2.58;1.08;;;;;13.50;97917.00;;;;10450449;28;20213;-82
2024/02/09 13:51:57;;;;;;;2.55;1.20;;;;;13.90;97920.00;;;;10427622;28;20304;-83
2024/02/09 13:56:59;;;;;;;2.45;1.30;;;;;14.10;97917.00;;;;10427353;28;20224;-83
2024/02/09 14:02:01;;;;;;;4.82;1.40;;;;;14.20;97918.00;;;;10460125;28;20262;-84
2024/02/09 14:07:04;;;;;;;2.70;1.40;;;;;13.90;97918.00;;;;10433704;28;20213;-83
2024/02/09 14:12:07;;;;;;;3.28;1.45;;;;;13.90;97923.00;;;;10436774;28;20222;-84
2024/02/09 14:17:11;;;;;;;2.70;1.70;;;;;13.90;97917.00;;;;10459456;28;20244;-84
2024/02/09 14:22:13;;;;;;;3.65;1.73;;;;;14.00;97912.00;;;;10416160;28;20226;-85
2024/02/09 14:27:15;;;;;;;2.92;1.38;;;;;13.80;97907.00;;;;10418073;28;20222;-84
2024/02/09 14:32:16;;;;;;;5.63;1.55;;;;;13.50;97888.00;;;;10444215;28;20217;-84
2024/02/09 14:37:21;;;;;;;4.40;1.67;;;;;13.40;97884.00;;;;10421454;28;20251;-81
2024/02/09 14:42:24;;;;;;;6.18;1.90;;;;;13.20;97889.00;;;;10444952;28;20217;-81
2024/02/09 14:47:27;;;;;;;5.40;1.88;;;;;13.10;97888.00;;;;10435781;28;20248;-81
2024/02/09 14:52:29;;;;;;;3.22;1.52;;;;;12.90;97888.00;;;;10443151;28;20274;-81
2024/02/09 14:57:32;;;;;;;3.17;1.80;;;;;12.80;97886.00;;;;10420091;28;20226;-81
2024/02/09 15:02:35;;;;;;;3.17;1.55;;;;;12.70;97891.00;;;;10445071;28;20222;-82
2024/02/09 15:07:41;;;;;;;3.15;1.30;;;;;13.10;97898.00;;;;10442941;28;20221;-80
2024/02/09 15:12:43;;;;;;;4.55;1.63;;;;;13.20;97898.00;;;;10439818;28;20696;-83
2024/02/09 15:17:45;;;;;;;5.65;1.40;;;;;13.20;97906.00;;;;10441035;28;20229;-78
2024/02/09 15:22:47;;;;;;;4.25;1.90;;;;;13.10;97905.00;;;;10441031;28;20256;-79
2024/02/09 15:27:51;;;;;;;2.97;1.40;;;;;13.00;97896.00;;;;10444505;28;20235;-79
2024/02/09 15:32:53;;;;;;;8.45;2.15;;;;;12.90;97911.00;;;;10453531;28;20221;-79
2024/02/09 15:37:56;;;;;;;7.38;2.13;;;;;12.90;97894.00;;;;10416412;28;20225;-79
2024/02/09 15:42:58;;;;;;;3.88;1.40;;;;;12.90;97897.00;;;;10424143;28;21079;-79
2024/02/09 15:48:02;;;;;;;2.65;1.20;;;;;12.80;97899.00;;;;10433361;28;20327;-82
2024/02/09 15:53:08;;;;;;;7.85;2.42;;;;;12.80;97891.00;;;;10425448;28;20218;-81
2024/02/09 15:58:09;;;;;;;5.43;1.33;;;;;12.70;97895.00;;;;10438740;28;20274;-80
2024/02/09 16:03:11;;;;;;;8.07;1.63;;;;;12.50;97888.00;;;;10421333;28;20244;-81
2024/02/09 16:08:13;;;;;;;7.35;1.20;;;;;12.40;97896.00;;;;10440829;28;20230;-82
2024/02/09 16:13:15;;;;;;;4.03;1.35;;;;;12.30;97891.00;;;;10442956;28;20226;-83
2024/02/09 16:18:17;;;;;;;7.43;1.65;;;;;12.30;97880.00;;;;10424359;28;20275;-82
2024/02/09 16:23:20;;;;;;;7.80;1.85;;;;;12.20;97890.00;;;;10446058;28;20224;-85
2024/02/09 16:28:23;;;;;;;4.18;1.60;;;;;12.10;97878.00;;;;10448622;28;20834;-82
2024/02/09 16:33:26;;;;;;;6.85;1.65;;;;;12.00;97870.00;;;;10423000;28;20810;-82
2024/02/09 16:38:28;;;;;;;8.27;1.40;;;;;11.90;97867.00;;;;10437815;28;20228;-81
2024/02/09 16:43:31;;;;;;;6.20;1.85;;;;;11.90;97878.00;;;;10447842;28;20220;-81
2024/02/09 16:48:33;;;;;;;4.88;1.75;;;;;11.90;97875.00;;;;10412349;28;20221;-85
2024/02/09 16:53:35;;;;;;;9.70;1.97;;;;;11.90;97876.00;;;;10430501;28;20227;-80
2024/02/09 16:58:36;;;;;;;6.17;1.80;;;;;11.80;97870.00;;;;10429123;28;20237;-83
2024/02/09 17:03:38;;;;;;;12.82;2.05;;;;;11.70;97861.00;;;;10445359;28;20263;-82
2024/02/09 17:08:40;;;;;;;5.80;1.90;;;;;11.80;97865.00;;;;10439857;28;20224;-83
2024/02/09 17:13:45;;;;;;;4.47;1.83;;;;;11.70;97870.00;;;;10443079;28;20222;-82
2024/02/09 17:18:47;;;;;;;5.83;2.30;;;;;11.70;97870.00;;;;10418857;28;20222;-82
2024/02/09 17:23:53;;;;;;;6.03;2.33;;;;;11.70;97869.00;;;;10414122;28;20223;-82
2024/02/09 17:28:55;;;;;;;7.40;2.23;;;;;11.70;97869.00;;;;10406451;28;20237;-82
2024/02/09 17:33:57;;;;;;;7.93;2.25;;;;;11.70;97865.00;;;;10420794;28;21962;-82
2024/02/09 17:39:02;;;;;;;8.53;2.30;;;;;11.70;97869.00;;;;10450956;28;20217;-82
2024/02/09 17:44:04;;;;;;;9.38;2.65;;;;;11.60;97882.00;;;;10440178;28;20220;-82
2024/02/09 17:49:05;;;;;;;7.67;2.43;;;;;11.60;97870.00;;;;10444027;28;20225;-82
2024/02/09 17:54:07;;;;;;;11.43;2.88;;;;;11.50;97867.00;;;;10426150;28;20313;-83
2024/02/09 17:59:13;;;;;;;7.72;3.05;;;;;11.50;97871.00;;;;10413764;28;20827;-83
2024/02/09 18:04:16;;;;;;;12.20;2.90;;;;;11.40;97877.00;;;;10434104;28;20229;-85
2024/02/09 18:09:18;;;;;;;12.60;3.00;;;;;11.30;97873.00;;;;10455652;28;20271;-80
2024/02/09 18:14:20;;;;;;;14.35;3.35;;;;;11.30;97887.00;;;;10427719;28;20665;-80
2024/02/09 18:19:22;;;;;;;9.25;3.33;;;;;11.30;97884.00;;;;10443107;28;20308;-81
2024/02/09 18:24:24;;;;;;;6.00;2.93;;;;;11.40;97888.00;;;;10434748;28;20217;-81
2024/02/09 18:29:26;;;;;;;8.33;3.67;;;;;11.30;97886.00;;;;10440679;28;20217;-84
2024/02/09 18:34:28;;;;;;;11.50;3.70;;;;;11.30;97875.00;;;;10435176;28;20217;-80
2024/02/09 18:39:31;;;;;;;7.80;4.43;;;;;11.30;97878.00;;;;10411751;28;20924;-81
2024/02/09 18:44:34;;;;;;;9.90;3.03;;;;;11.30;97870.00;;;;10440374;28;20209;-80
2024/02/09 18:49:37;;;;;;;14.37;3.40;;;;;11.30;97878.00;;;;10453783;28;20214;-79
2024/02/09 18:54:40;;;;;;;10.27;4.17;;;;;11.30;97881.00;;;;10437896;28;20224;-82
2024/02/09 18:59:43;;;;;;;7.73;3.77;;;;;11.30;97877.00;;;;10431400;28;20272;-77
2024/02/09 19:04:45;;;;;;;9.67;3.63;;;;;11.20;97865.00;;;;10405815;28;20272;-79
2024/02/09 19:09:50;;;;;;;6.50;3.50;;;;;11.20;97879.00;;;;10418223;28;20221;-80
2024/02/09 19:14:55;;;;;;;9.10;2.67;;;;;11.10;97873.00;;;;10448516;28;20226;-78
2024/02/09 19:19:57;;;;;;;9.27;3.30;;;;;11.00;97880.00;;;;10454303;28;20930;-78
2024/02/09 19:25:00;;;;;;;6.47;3.07;;;;;11.00;97882.00;;;;10412237;28;20282;-77
2024/02/09 19:30:04;;;;;;;5.97;3.03;;;;;10.90;97876.00;;;;10429930;28;20218;-77
2024/02/09 19:35:06;;;;;;;7.10;3.60;;;;;10.90;97873.00;;;;10429338;28;20224;-77
2024/02/09 19:40:10;;;;;;;13.97;3.80;;;;;10.90;97878.00;;;;10421916;28;20304;-78
2024/02/09 19:45:12;;;;;;;8.27;3.50;;;;;10.80;97873.00;;;;10401490;28;20247;-78
2024/02/09 19:50:14;;;;;;;11.63;4.03;;;;;10.70;97875.00;;;;10441018;28;20221;-79
2024/02/09 19:55:17;;;;;;;8.37;3.83;;;;;10.70;97875.00;;;;10415194;28;20230;-78
2024/02/09 20:00:20;;;;;;;12.60;4.47;;;;;10.60;97876.00;;;;10415591;28;20310;-76
2024/02/09 20:05:27;;;;;;;10.47;3.93;;;;;10.70;97883.00;;;;10414934;28;20291;-83
2024/02/09 20:10:29;;;;;;;11.27;4.67;;;;;10.70;97875.00;;;;10421784;28;20217;-83
2024/02/09 20:15:31;;;;;;;12.37;4.60;;;;;10.70;97882.00;;;;10438043;28;20220;-84
2024/02/09 20:20:33;;;;;;;8.60;4.47;;;;;10.70;97883.00;;;;10426181;28;20232;-81
2024/02/09 20:25:35;;;;;;;13.97;5.33;;;;;10.70;97873.00;;;;10419700;28;20245;-81
2024/02/09 20:30:37;;;;;;;10.70;4.67;;;;;10.70;97877.00;;;;10434190;28;20254;-83
2024/02/09 20:35:39;;;;;;;9.07;4.43;;;;;10.80;97885.00;;;;10428284;28;20301;-81
2024/02/09 20:40:41;;;;;;;8.90;3.53;;;;;10.80;97889.00;;;;10423158;28;20283;-83
2024/02/09 20:45:46;;;;;;;10.57;4.43;;;;;10.80;97899.00;;;;10441444;28;20213;-82
2024/02/09 20:50:48;;;;;;;11.50;4.60;;;;;10.80;97893.00;;;;10455827;28;20232;-83
2024/02/09 20:55:52;;;;;;;8.60;3.80;;;;;10.70;97892.00;;;;10470138;28;20232;-84
2024/02/09 21:00:55;;;;;;;7.33;3.77;;;;;10.70;97899.00;;;;10439341;28;20241;-82
2024/02/09 21:05:58;;;;;;;9.27;3.63;;;;;10.60;97904.00;;;;10443970;28;20225;-83
2024/02/09 21:11:01;;;;;;;12.43;3.70;;;;;10.70;97912.00;;;;10448363;28;20227;-82
2024/02/09 21:16:03;;;;;;;8.07;3.50;;;;;10.70;97917.00;;;;10448498;28;20214;-87
2024/02/09 21:21:06;;;;;;;9.03;3.53;;;;;10.80;97910.00;;;;10451564;28;20253;-86
2024/02/09 21:26:07;;;;;;;5.77;2.70;;;;;10.90;97916.00;;;;10454213;28;20648;-87
2024/02/09 21:31:10;;;;;;;9.83;3.20;;;;;10.90;97910.00;;;;10431397;28;20221;-87
2024/02/09 21:36:13;;;;;;;4.10;2.50;;;;;10.80;97913.00;;;;10428220;28;20908;-86
2024/02/09 21:41:15;;;;;;;10.13;2.93;;;;;10.80;97906.00;;;;10431508;28;20514;-88
2024/02/09 21:46:17;;;;;;;9.73;3.07;;;;;10.80;97908.00;;;;10452035;28;20846;-85
2024/02/09 21:51:19;;;;;;;9.83;3.30;;;;;10.90;97902.00;;;;10449272;28;20229;-88
2024/02/09 21:56:22;;;;;;;7.83;2.37;;;;;11.00;97907.00;;;;10458453;28;20228;-86
2024/02/09 22:01:24;;;;;;;5.17;2.53;;;;;11.00;97906.00;;;;10416152;28;20592;-86
2024/02/09 22:06:28;;;;;;;5.03;2.33;;;;;11.00;97916.00;;;;10439682;28;20286;-87
2024/02/09 22:11:30;;;;;;;3.50;2.23;;;;;11.10;97916.00;;;;10408914;28;20276;-87
2024/02/09 22:16:34;;;;;;;5.70;2.80;;;;;11.10;97908.00;;;;10445251;28;20305;-88
2024/02/09 22:21:36;;;;;;;6.30;2.50;;;;;11.10;97917.00;;;;10445823;28;20239;-89
2024/02/09 22:26:38;;;;;;;8.60;2.77;;;;;11.10;97922.00;;;;10437260;28;20217;-83
2024/02/09 22:31:40;;;;;;;6.20;2.60;;;;;11.10;97918.00;;;;10445265;28;20268;-82
2024/02/09 22:36:42;;;;;;;9.00;3.17;;;;;11.10;97927.00;;;;10437595;28;20217;-82
2024/02/09 22:41:47;;;;;;;6.57;2.50;;;;;11.20;97922.00;;;;10435122;28;20644;-82
2024/02/09 22:46:50;;;;;;;5.77;2.50;;;;;11.20;97934.00;;;;10437440;28;20692;-82
2024/02/09 22:51:53;;;;;;;5.13;2.50;;;;;11.20;97932.00;;;;10443031;28;20302;-82
2024/02/09 22:56:58;;;;;;;10.30;3.10;;;;;11.10;97927.00;;;;10428361;28;20221;-82
2024/02/09 23:02:01;;;;;;;7.23;2.17;;;;;11.10;97928.00;;;;10427733;28;20340;-83
2024/02/09 23:07:05;;;;;;;4.90;2.10;;;;;11.10;97931.00;;;;10437606;28;20213;-82
2024/02/09 23:12:07;;;;;;;3.17;1.83;;;;;11.10;97930.00;;;;10418853;28;20223;-83
2024/02/09 23:17:10;;;;;;;8.93;2.03;;;;;11.10;97933.00;;;;10442243;28;20221;-82
2024/02/09 23:22:14;;;;;;;5.50;1.97;;;;;11.20;97931.00;;;;10442588;28;20226;-82
2024/02/09 23:27:16;;;;;;;2.73;1.47;;;;;11.20;97944.00;;;;10431860;28;20267;-81
2024/02/09 23:32:18;;;;;;;7.87;2.23;;;;;11.10;97944.00;;;;10449834;28;20233;-81
2024/02/09 23:37:20;;;;;;;4.93;2.30;;;;;11.10;97953.00;;;;10441310;28;20723;-83
2024/02/09 23:42:23;;;;;;;5.87;2.17;;;;;11.10;97939.00;;;;10415597;28;20225;-83
2024/02/09 23:47:27;;;;;;;8.40;2.10;;;;;11.10;97946.00;;;;10423874;28;20217;-83
2024/02/09 23:52:29;;;;;;;4.60;1.60;;;;;11.00;97956.00;;;;10418739;28;20681;-83
2024/02/09 23:57:31;;;;;;;4.63;2.10;;;;;11.10;97956.00;;;;10420639;28;20222;-83
